Pagrindinis puslapis
METAR-TAF:

METAR-TAF

Oro uostai :

Cherokee County Airport

Jacksonville, Teksasas, Jungtinės Amerikos Valstijos

platuma: 31-52-09N, ilguma: 095-13-02W, Aukštis: 206 m

Dabartinis oras

Ataskaita buvo paskelbta 27 minutes, ne 04:15 UTC
Vėjas 4 kt iš Pietų/Pietryčių
Temperatūra 21°C
Drėgmė 94%
Slėgis 1016 hPa
Matomumas: 16.1 km
Apsiniaukę ne aukštis 1000 ft

METAR: KJSO 170415Z AUTO 16004KT 10SM OVC010 21/20 A3001 RMK AO2 T02120201

Laikas: 23:42 (04:42 UTC)


TAF: trūkstamas

Orai ataskaitas ir orų prognozės (METAR, TAF).

turimą stotys yra geltonos ir raudonos taškus žemėlapyje.

Perkelti pele per norėdami pamatyti stoties vardą.

Tada spustelėkite, norėdami matyti oro stebėjimo ir prognozės.

Norėdami pakeisti žemėlapį: spustelėkite ant žalios mygtukų su juodo kryžiaus žemyn,; žalią mygtuką su brūkšneliu, jei norite nutolinti; arba žalių rodyklių gretimoms žemėlapius.


METAR-TAF: